Velovelo
Português Nederlands 日本語 中文
Español English čeština slovenčina
русский italiano polski norsk
français Deutsch svenska عربي
 
 vorige pagina
 Stuur naar een vriend
 Print dit artikel
 ---> La Granite Mont Lozère 2009 : Résultats du 98 km

ClNom Prénom .....Caté .........................Cl.cat.Temps..Ecart
1 EKINDJIAN Stéphane D = homme 30/39 1 2:47:28
2 KOUYOUMDJIAN Rémy C = homme 18/29 1 2:47:28 0:00.21
3 JEANJEAN Nicolas E = homme 40/49 1 2:49:44 2:15.75
4 RANDON Philippe E = homme 40/49 2 2:50:27 2:58.87
5 ANGLIVIEL Nicolas D = homme 30/39 2 2:50:40 3:12.22
6 BARTHELEMY Bernard E = homme 40/49 3 2:50:47 3:19.29
7 PINEDE Christian E = homme 40/49 4 2:53:25 5:56.78
8 CHAPELLE Jérémie C = homme 18/29 2 2:53:26 5:57.39
9 CHAPPELLAZ Jean Baptiste C = homme 18/29 3 2:53:27 5:58.92
10 PASTRE Nicolas C = homme 18/29 4 2:53:32 6:03.51
11 GERAUD Alain F = homme 50/59 1 2:53:45 6:16.41
12 SANFILIPPO David E = homme 40/49 5 2:55:11 7:43.29
13 CHAPTAL Nicolas D = homme 30/39 3 2:57:55 10:26.5
14 HILAIRE Rodolphe C = homme 18/29 5 2:57:58 10:30.1
15 GIANNOLI Pascal E = homme 40/49 6 2:58:15 10:47.1
16 SPADA Charles D = homme 30/39 4 2:59:02 11:33.5
17 CORREAS Liberto F = homme 50/59 2 2:59:03 11:34.7
18 GERBAL Thomas C = homme 18/29 6 2:59:07 11:38.5
19 LLORET Michel F = homme 50/59 3 2:59:15 11:47.0
20 PONOT Cédric C = homme 18/29 7 2:59:28 11:59.8
21 DEFEVER Robin C = homme 18/29 8 2:59:39 12:10.5
22 RAVIERE Olivier E = homme 40/49 7 2:59:40 12:11.6
23 TOURREL Arnaud D = homme 30/39 5 2:59:46 12:18.0
24 FROLI Alain Denis E = homme 40/49 8 2:59:52 12:23.6
25 BERENGER Sébastien C = homme 18/29 9 2:59:54 12:25.9
26 ARMAND Mikael D = homme 30/39 6 3:02:55 15:26.9
27 REYGADE Pierre E = homme 40/49 9 3:02:56 15:28.1
28 GISBERT Christophe E = homme 40/49 10 3:02:58 15:29.4
29 TALAGRAND Peirre C = homme 18/29 10 3:02:59 15:31.1
30 BREGOU Emmanuel E = homme 40/49 11 3:03:01 15:32.4
31 NAVARRO Anthony C = homme 18/29 11 3:03:02 15:34.0
32 MARQUAND Simon C = homme 18/29 12 3:03:03 15:34.5
33 MARTINEZ Daniel G = homme 60 /+ 1 3:03:08 15:39.5
34 GIALDINI Alexandre D = homme 30/39 7 3:05:42 18:14.0
35 CHAUCHARD Vincent F = homme 50/59 4 3:05:44 18:16.2
36 PEDULLA Bruno E = homme 40/49 12 3:05:52 18:24.1
37 SAILLARD Stéphane E = homme 40/49 13 3:05:59 18:30.5
38 RAMBAUD Patrick C = homme 18/29 13 3:08:42 21:13.4
39 CRUPEAUX Eric E = homme 40/49 14 3:08:58 21:30.1
40 BOURDEL Pierre E = homme 40/49 15 3:09:01 21:32.8
41 SOUCHE Thierry E = homme 40/49 16 3:11:06 23:37.7
42 TREMOLET David D = homme 30/39 8 3:11:07 23:38.6
43 FABRE Olivier D = homme 30/39 9 3:11:53 24:24.3
44 POUJOLS Jérôme C = homme 18/29 14 3:11:57 24:28.6
45 MAGE Olivier E = homme 40/49 17 3:12:06 24:38.3
46 LOUBET Patrick E = homme 40/49 18 3:15:55 28:27.2
47 GONZALES Claude F = homme 50/59 5 3:17:04 29:36.3
48 DELESSERT Guy F = homme 50/59 6 3:17:09 29:41.3
49 BAILLI Stéphane D = homme 30/39 10 3:17:11 29:42.6
50 PARRA Jean Charles F = homme 50/59 7 3:17:14 29:46.3
51 GOUDENT Pascal E = homme 40/49 19 3:17:19 29:50.6
52 CHABOD Henri E = homme 40/49 20 3:17:24 29:55.5
53 THEROND Christian F = homme 50/59 8 3:17:24 29:56.2
54 LE BON Florent C = homme 18/29 15 3:17:46 30:17.8
55 VENTO Louis G = homme 60 /+ 2 3:17:54 30:26.0
56 BARDE Jean Charles G = homme 60 /+ 3 3:17:56 30:28.3
57 HOUDEBINE René G = homme 60 /+ 4 3:18:02 30:34.0
58 CHIESA Jean F = homme 50/59 9 3:18:07 30:39.0
59 ANTALEC Jérôme E = homme 40/49 21 3:20:00 32:31.4
60 BUISSON Yannick D = homme 30/39 11 3:20:12 32:44.2
61 BONICEL André F = homme 50/59 10 3:20:14 32:45.6
62 PASCAL Regis E = homme 40/49 22 3:23:59 36:31.0
63 EPALLE Vincent D = homme 30/39 12 3:24:00 36:31.5
64 MORAND Fabrice F = homme 50/59 11 3:24:00 36:32.2
65 MAZAUDIER David D = homme 30/39 13 3:24:02 36:33.5
66 LAURES Bruno E = homme 40/49 23 3:24:19 36:50.7
67 MIRAMONT Franck D = homme 30/39 14 3:27:05 39:37.2
68 BELIN Michel F = homme 50/59 12 3:27:18 39:50.0
69 MMAURIN Henry F = homme 50/59 13 3:27:37 40:08.7
70 LAVIGNE Jean G = homme 60 /+ 5 3:28:28 41:00.1
71 DUCHMANN Jean Marc E = homme 40/49 24 3:28:37 41:08.4
72 ALLIER Mikael C = homme 18/29 16 3:29:22 41:53.8
73 TUFFERY Nicolas C = homme 18/29 17 3:29:23 41:54.8
74 DEVERECT Michel F = homme 50/59 14 3:30:59 43:31.2
75 MACHADO Christophe D = homme 30/39 15 3:31:10 43:41.4
76 RAVE Alain E = homme 40/49 25 3:31:26 43:58.1
77 DAVID Jean François G = homme 60 /+ 6 3:32:48 45:20.1
78 BRUEL Jean Louis F = homme 50/59 15 3:32:54 45:26.3
79 BENOIT Patrick E = homme 40/49 26 3:32:55 45:27.0
80 BEN ABDESLEM Mohammed G = homme 60 /+ 7 3:32:56 45:27.9
81 Cazadewall Merlin Jean Louis E = homme 40/49 27 3:34:13 46:44.6
82 PERRET Monique B= dame 40 et + 1 3:34:15 46:47.2
83 FLORENTIN François E = homme 40/49 28 3:34:16 46:47.8
84 GINOUX Frédéric D = homme 30/39 16 3:34:17 46:48.4
85 BOUSSAC Lilian E = homme 40/49 29 3:34:20 46:51.7
86 COMBES Jean Louis G = homme 60 /+ 8 3:37:07 49:38.7
87 MOUNIER Christian D = homme 30/39 17 3:40:11 52:42.7
88 PEREZ Jean Bernard F = homme 50/59 16 3:40:48 53:19.8
89 FAURE Rémy G = homme 60 /+ 9 3:40:50 53:21.4
90 ENJELVIN Louis G = homme 60 /+ 10 3:40:51 53:22.9
91 ANDRIEU Philippe G = homme 60 /+ 11 3:41:00 53:31.7
92 COUDERC Francis E = homme 40/49 30 3:41:01 53:32.6
93 PERIE Jean G = homme 60 /+ 12 3:43:31 56:03.0
94 POL Georges F = homme 50/59 17 3:45:41 58:13.2
95 DEFOUR Véronique B= dame 40 et + 2 3:46:24 58:56.0
96 DUMETZ George F = homme 50/59 18 3:46:44 59:15.5
97 MARCHAUD Fabrice E = homme 40/49 31 3:46:48 59:20.3
98 LOMBARD Pierre F = homme 50/59 19 3:47:07 59:38.9
99 MACHEBOEUF Francis G = homme 60 /+ 13 3:50:35 1:03:07
100 MATHIEU Bertrand D = homme 30/39 18 3:50:36 1:03:08
101 MARTIN Didier F = homme 50/59 20 3:53:04 1:05:35
102 JOUSSOUYS Serge F = homme 50/59 21 3:53:13 1:05:45
103 FAYARD Christian E = homme 40/49 32 3:55:33 1:08:04
104 GAZZOLA Jean Pierre F = homme 50/59 22 3:55:45 1:08:16
105 ALBINET Claude G = homme 60 /+ 14 4:06:31 1:19:03
106 JULLIEN Sylvie B= dame 40 et + 3 4:10:39 1:23:10
107 COMBERNOUX Olivier D = homme 30/39 19 4:12:02 1:24:33
108 JOFFRON Pascale B= dame 40 et + 4 4:13:28 1:25:59
109 BIHOUEE Daniel G = homme 60 /+ 15 4:13:31 1:26:02
110 NADER Alain F = homme 50/59 23 4:15:18 1:27:49
111 FILBAS Marie A = dame 18/39 1 4:27:30 1:40:01
112 VLEGGEERT Jan E = homme 40/49 33 4:31:52 1:44:24
113 BENOIT Jean Louis F = homme 50/59 24 4:31:53 1:44:25
114 DIAZ Gines G = homme 60 /+ 16 4:32:01 1:44:32
115 TACHE Guy G = homme 60 /+ 17 4:35:42 1:48:13
116 TACHE Muriel A = dame 18/39 2 4:35:42 1:48:14
117 ECKHART Johanna B= dame 40 et + 5 4:45:24 1:57:55
118 MORAND Pierre G = homme 60 /+ 18 4:58:26 2:10:57
119 BERAL Martine B= dame 40 et + 6 6:38:55 3:51:27

Haut 









Haut  
 Privé-site   Auteursrecht-Copyright : klik hier om te lezen !